Time;durP1;ratioP1;P1;durP2;ratioP2;P2;SDS_P1;SDS_P2;PMS_P1;PMS_P2;Temp;Humidity;BMP_temperature;BMP_pressure;BME280_temperature;BME280_humidity;BME280_pressure;Samples;Min_cycle;Max_cycle;Signal;HPM_P1;HPM_P2
2020/12/11 00:02:02;;;;;;;7.15;3.65;;;22.90;50.50;;;;;;5070651;28;45409;-61
2020/12/11 00:04:27;;;;;;;9.18;3.33;;;22.90;50.50;;;;;;5071468;28;45558;-61
2020/12/11 00:06:58;;;;;;;8.05;3.63;;;22.90;50.50;;;;;;5070348;28;46163;-61
2020/12/11 00:09:27;;;;;;;8.77;3.90;;;22.90;50.50;;;;;;5089352;27;45513;-62
2020/12/11 00:11:53;;;;;;;7.03;3.50;;;22.90;50.60;;;;;;5070828;28;45436;-62
2020/12/11 00:14:18;;;;;;;7.20;3.60;;;22.80;50.50;;;;;;5071371;28;45233;-61
2020/12/11 00:16:44;;;;;;;8.55;3.42;;;22.80;50.60;;;;;;5070760;28;45558;-61
2020/12/11 00:19:10;;;;;;;6.32;3.75;;;22.80;50.50;;;;;;5069965;28;45301;-61
2020/12/11 00:21:43;;;;;;;6.18;3.70;;;22.80;50.50;;;;;;5071135;28;45453;-61
2020/12/11 00:24:12;;;;;;;6.20;3.50;;;22.80;50.60;;;;;;5070920;28;45386;-61
2020/12/11 00:26:38;;;;;;;6.47;3.70;;;22.90;50.50;;;;;;5070612;28;45315;-61
2020/12/11 00:29:04;;;;;;;7.20;4.18;;;22.80;50.50;;;;;;5070214;28;45477;-62
2020/12/11 00:31:30;;;;;;;5.57;3.38;;;22.80;50.60;;;;;;5087873;28;45392;-61
2020/12/11 00:33:56;;;;;;;7.47;3.78;;;22.80;50.60;;;;;;5071039;28;45413;-61
2020/12/11 00:36:22;;;;;;;6.35;3.58;;;22.70;50.60;;;;;;5069365;28;46131;-61
2020/12/11 00:38:48;;;;;;;6.00;3.50;;;22.70;50.70;;;;;;5087253;28;45316;-61
2020/12/11 00:41:14;;;;;;;7.50;3.75;;;22.70;50.80;;;;;;5066422;28;45447;-61
2020/12/11 00:43:39;;;;;;;5.88;3.03;;;22.60;50.80;;;;;;5050378;28;45398;-62
2020/12/11 00:46:05;;;;;;;6.50;3.58;;;22.70;50.80;;;;;;5050129;28;45319;-61
2020/12/11 00:48:30;;;;;;;8.52;3.55;;;22.70;50.90;;;;;;5050101;28;45374;-61
2020/12/11 00:50:56;;;;;;;4.85;3.03;;;22.60;50.80;;;;;;5050065;28;45345;-61
2020/12/11 00:53:22;;;;;;;6.57;3.70;;;22.60;50.80;;;;;;5049584;28;45702;-63
2020/12/11 00:55:47;;;;;;;5.95;3.45;;;22.60;50.80;;;;;;5050165;28;46290;-61
2020/12/11 00:58:13;;;;;;;5.57;3.65;;;22.60;50.90;;;;;;5066743;28;45560;-61
2020/12/11 01:00:39;;;;;;;6.18;3.10;;;22.60;50.90;;;;;;5049990;28;45398;-61
2020/12/11 01:03:05;;;;;;;5.68;3.28;;;22.60;50.90;;;;;;5066477;28;45523;-61
2020/12/11 01:05:31;;;;;;;5.15;3.17;;;22.60;50.90;;;;;;5049925;28;46104;-61
2020/12/11 01:07:57;;;;;;;6.90;3.75;;;22.60;50.90;;;;;;5049306;28;45350;-60
2020/12/11 01:10:22;;;;;;;5.43;3.35;;;22.60;50.90;;;;;;5065904;28;45433;-62
2020/12/11 01:12:48;;;;;;;5.57;3.33;;;22.50;50.90;;;;;;5068088;28;45469;-61
2020/12/11 01:15:14;;;;;;;6.10;3.70;;;22.50;50.90;;;;;;5049711;28;46028;-61
2020/12/11 01:17:39;;;;;;;6.60;3.80;;;22.50;50.90;;;;;;5066302;28;45466;-61
2020/12/11 01:20:05;;;;;;;6.82;4.20;;;22.50;50.90;;;;;;5049137;28;45394;-61
2020/12/11 01:22:31;;;;;;;6.47;3.83;;;22.50;50.80;;;;;;5066669;28;45623;-62
2020/12/11 01:24:57;;;;;;;7.03;3.88;;;22.50;50.90;;;;;;5049252;28;46436;-63
2020/12/11 01:27:23;;;;;;;7.20;4.28;;;22.50;50.90;;;;;;5049054;28;45320;-62
2020/12/11 01:29:49;;;;;;;6.20;3.88;;;22.50;50.90;;;;;;5049742;28;45495;-61
2020/12/11 01:32:15;;;;;;;6.57;3.53;;;22.50;50.90;;;;;;5066514;28;45414;-62
2020/12/11 01:34:40;;;;;;;5.00;3.60;;;22.50;50.90;;;;;;5048903;28;46968;-62
2020/12/11 01:37:06;;;;;;;5.80;3.65;;;22.50;50.90;;;;;;5048243;28;45521;-62
2020/12/11 01:39:32;;;;;;;6.57;3.45;;;22.50;50.90;;;;;;5067384;28;45208;-61
2020/12/11 01:41:58;;;;;;;6.78;3.83;;;22.50;50.90;;;;;;5063938;28;45386;-62
2020/12/11 01:44:24;;;;;;;5.90;3.25;;;22.40;50.90;;;;;;5069393;28;45519;-61
2020/12/11 01:46:50;;;;;;;7.15;4.13;;;22.40;50.90;;;;;;5069404;28;45381;-61
2020/12/11 01:49:16;;;;;;;7.22;4.45;;;22.40;50.90;;;;;;5069144;28;45490;-61
2020/12/11 01:51:41;;;;;;;6.75;3.70;;;22.40;50.90;;;;;;5069799;28;45330;-61
2020/12/11 01:54:07;;;;;;;6.45;3.72;;;22.40;50.90;;;;;;5068686;28;46233;-61
2020/12/11 01:56:59;;;;;;;6.32;3.30;;;22.40;50.90;;;;;;5086067;28;45459;-61
2020/12/11 01:59:43;;;;;;;5.63;3.20;;;22.40;50.90;;;;;;5080203;28;45520;-61
2020/12/11 02:02:12;;;;;;;6.70;3.33;;;22.40;51.40;;;;;;5086166;28;45449;-61
2020/12/11 02:04:38;;;;;;;7.10;3.80;;;22.40;50.90;;;;;;5085697;28;47067;-61
2020/12/11 02:07:04;;;;;;;5.57;3.53;;;22.40;50.90;;;;;;5086019;28;45365;-61
2020/12/11 02:09:32;;;;;;;5.43;3.40;;;22.40;50.90;;;;;;5085622;28;45313;-62
2020/12/11 02:11:57;;;;;;;5.60;3.70;;;22.30;50.90;;;;;;5086853;27;45302;-62
2020/12/11 02:14:23;;;;;;;6.60;4.30;;;22.30;50.90;;;;;;5069105;28;47022;-62
2020/12/11 02:16:48;;;;;;;4.80;3.05;;;22.30;50.90;;;;;;5068561;28;45432;-61
2020/12/11 02:19:14;;;;;;;7.47;3.95;;;22.30;50.90;;;;;;5085324;28;45381;-61
2020/12/11 02:21:40;;;;;;;5.97;3.95;;;22.30;50.90;;;;;;5069558;28;45588;-62
2020/12/11 02:24:05;;;;;;;6.20;3.60;;;22.30;50.90;;;;;;5069050;28;45925;-62
2020/12/11 02:26:31;;;;;;;7.78;4.00;;;22.30;50.90;;;;;;5068678;28;45360;-62
2020/12/11 02:28:57;;;;;;;6.35;3.53;;;22.30;50.90;;;;;;5085514;28;45321;-62
2020/12/11 02:31:22;;;;;;;6.00;4.00;;;22.30;50.80;;;;;;5069123;28;45312;-61
2020/12/11 02:33:48;;;;;;;7.57;4.35;;;22.30;50.90;;;;;;5068629;28;46878;-61
2020/12/11 02:36:14;;;;;;;5.45;3.80;;;22.30;50.90;;;;;;5067602;28;45303;-61
2020/12/11 02:38:40;;;;;;;6.20;3.65;;;22.30;50.80;;;;;;5069088;28;45324;-62
2020/12/11 02:41:08;;;;;;;6.40;3.67;;;22.20;50.80;;;;;;5065798;28;45566;-62
2020/12/11 02:43:37;;;;;;;6.07;3.88;;;22.30;50.80;;;;;;5064863;28;45368;-62
2020/12/11 02:46:03;;;;;;;6.85;3.70;;;22.30;50.80;;;;;;5048841;28;45573;-62
2020/12/11 02:48:28;;;;;;;6.50;3.60;;;22.30;50.80;;;;;;5048484;28;45453;-62
2020/12/11 02:50:54;;;;;;;6.07;3.50;;;22.30;50.80;;;;;;5048866;28;45304;-61
2020/12/11 02:53:20;;;;;;;5.85;3.88;;;22.30;50.80;;;;;;5047830;28;46507;-61
2020/12/11 02:55:45;;;;;;;6.35;3.55;;;22.20;50.70;;;;;;5048308;28;45385;-62
2020/12/11 02:58:11;;;;;;;5.95;3.65;;;22.30;50.80;;;;;;5065057;28;45485;-61
2020/12/11 03:00:36;;;;;;;5.75;3.63;;;22.20;50.80;;;;;;5048439;28;45430;-62
2020/12/11 03:03:02;;;;;;;5.93;3.58;;;22.20;50.70;;;;;;5048207;28;45231;-62
2020/12/11 03:05:28;;;;;;;5.32;3.55;;;22.20;50.70;;;;;;5065006;28;45537;-61
2020/12/11 03:07:53;;;;;;;5.57;3.47;;;22.30;50.70;;;;;;5048423;28;45369;-61
2020/12/11 03:10:19;;;;;;;4.80;3.45;;;22.30;50.60;;;;;;5064531;28;45543;-61
2020/12/11 03:12:44;;;;;;;7.97;3.95;;;22.30;50.50;;;;;;5049377;28;46565;-61
2020/12/11 03:15:10;;;;;;;5.28;3.40;;;22.40;50.40;;;;;;5051341;28;45328;-61
2020/12/11 03:17:36;;;;;;;5.57;3.45;;;22.50;50.30;;;;;;5051519;28;45303;-61
2020/12/11 03:20:01;;;;;;;5.95;3.58;;;22.50;50.20;;;;;;5051823;28;45362;-62
2020/12/11 03:22:27;;;;;;;6.65;3.63;;;22.50;50.10;;;;;;5068034;28;47602;-61
2020/12/11 03:24:53;;;;;;;5.72;3.63;;;22.50;50.00;;;;;;5068100;28;45317;-61
2020/12/11 03:27:18;;;;;;;6.63;4.00;;;22.60;49.90;;;;;;5051348;28;45294;-60
2020/12/11 03:29:44;;;;;;;6.63;3.65;;;22.60;49.90;;;;;;5052017;28;45304;-61
2020/12/11 03:32:09;;;;;;;5.32;3.70;;;22.70;49.90;;;;;;5051233;28;46330;-61
2020/12/11 03:34:35;;;;;;;4.78;3.17;;;22.60;49.80;;;;;;5050982;28;45431;-61
2020/12/11 03:37:01;;;;;;;4.25;2.90;;;22.60;49.70;;;;;;5068169;28;45405;-61
2020/12/11 03:39:26;;;;;;;5.85;3.80;;;22.60;49.60;;;;;;5051840;28;45153;-61
2020/12/11 03:41:52;;;;;;;5.75;3.95;;;22.60;49.60;;;;;;5064298;28;47129;-61
2020/12/11 03:44:18;;;;;;;5.70;3.53;;;22.60;49.70;;;;;;5071168;28;45290;-61
2020/12/11 03:46:44;;;;;;;5.93;3.35;;;22.60;49.50;;;;;;5088563;28;45297;-62
2020/12/11 03:49:09;;;;;;;5.65;3.25;;;22.70;49.60;;;;;;5088113;28;45356;-62
2020/12/11 03:51:35;;;;;;;5.38;3.15;;;22.70;49.50;;;;;;5069739;28;46121;-62
2020/12/11 03:54:01;;;;;;;5.22;3.35;;;22.70;49.50;;;;;;5071319;28;45418;-61
2020/12/11 03:56:26;;;;;;;4.65;3.35;;;22.80;49.50;;;;;;5088012;28;45427;-62
2020/12/11 03:58:52;;;;;;;5.05;3.13;;;22.80;49.40;;;;;;5071557;28;45377;-62
2020/12/11 04:01:18;;;;;;;5.50;3.47;;;22.80;49.40;;;;;;5087355;28;45343;-61
2020/12/11 04:03:43;;;;;;;5.82;3.55;;;22.90;49.40;;;;;;5071130;28;45346;-61
2020/12/11 04:06:16;;;;;;;4.65;2.88;;;22.80;49.30;;;;;;5088000;28;45411;-61
2020/12/11 04:08:42;;;;;;;5.38;3.45;;;22.90;49.30;;;;;;5087702;28;46025;-62
2020/12/11 04:11:10;;;;;;;4.88;3.30;;;22.90;49.30;;;;;;5071202;28;46524;-62
2020/12/11 04:13:36;;;;;;;5.60;3.10;;;22.90;49.20;;;;;;5087820;28;45353;-61
2020/12/11 04:16:01;;;;;;;4.60;3.00;;;22.90;49.20;;;;;;5071142;28;45247;-62
2020/12/11 04:18:27;;;;;;;6.25;3.38;;;22.90;49.20;;;;;;5071179;28;45544;-61
2020/12/11 04:20:53;;;;;;;4.95;3.13;;;23.00;49.20;;;;;;5070836;28;46852;-63
2020/12/11 04:23:18;;;;;;;5.00;2.90;;;23.00;49.10;;;;;;5069817;28;45427;-62
2020/12/11 04:25:44;;;;;;;5.38;3.00;;;23.00;49.10;;;;;;5070219;28;45449;-61
2020/12/11 04:28:10;;;;;;;4.05;2.63;;;23.00;49.10;;;;;;5088531;28;45706;-61
2020/12/11 04:30:35;;;;;;;4.82;3.28;;;23.00;49.00;;;;;;5087418;28;46212;-62
2020/12/11 04:33:01;;;;;;;5.53;2.85;;;23.10;49.00;;;;;;5087328;27;45567;-63
2020/12/11 04:35:27;;;;;;;4.28;2.78;;;23.10;49.00;;;;;;5070478;28;45418;-61
2020/12/11 04:37:52;;;;;;;5.00;2.95;;;23.10;49.00;;;;;;5070756;28;45521;-62
2020/12/11 04:40:18;;;;;;;6.60;3.55;;;23.10;49.00;;;;;;5069799;28;46196;-62
2020/12/11 04:42:44;;;;;;;4.60;3.05;;;23.10;49.00;;;;;;5086767;28;45392;-62
2020/12/11 04:45:11;;;;;;;5.20;2.70;;;23.10;48.90;;;;;;5087766;28;45360;-61
2020/12/11 04:47:44;;;;;;;5.60;3.47;;;23.10;48.90;;;;;;5088104;28;45619;-61
2020/12/11 04:50:11;;;;;;;8.23;3.25;;;23.10;49.10;;;;;;5086461;28;47415;-62
2020/12/11 04:52:38;;;;;;;5.43;3.72;;;23.20;48.90;;;;;;5086634;28;45391;-61
2020/12/11 04:55:03;;;;;;;6.60;3.40;;;23.20;48.60;;;;;;5086802;28;45450;-61
2020/12/11 04:57:31;;;;;;;7.25;3.80;;;23.20;48.40;;;;;;5087433;28;45394;-61
2020/12/11 04:59:57;;;;;;;5.22;3.67;;;23.20;47.90;;;;;;5086559;28;46229;-61
2020/12/11 05:02:22;;;;;;;6.55;4.57;;;23.20;47.50;;;;;;5086741;28;45476;-61
2020/12/11 05:04:50;;;;;;;8.25;4.82;;;23.20;47.10;;;;;;5086988;28;45369;-62
2020/12/11 05:07:16;;;;;;;7.20;4.55;;;23.20;46.80;;;;;;5087559;28;45518;-61
2020/12/11 05:09:42;;;;;;;6.90;4.43;;;23.20;46.90;;;;;;5086498;28;46036;-61
2020/12/11 05:12:14;;;;;;;5.55;4.32;;;23.20;47.00;;;;;;5086979;28;45308;-61
2020/12/11 05:14:40;;;;;;;7.10;5.15;;;23.20;46.70;;;;;;5086504;28;45435;-61
2020/12/11 05:17:06;;;;;;;7.90;4.60;;;23.20;46.60;;;;;;5086983;28;45580;-62
2020/12/11 05:19:48;;;;;;;7.50;5.30;;;23.20;46.40;;;;;;5086591;28;46929;-62
2020/12/11 05:22:14;;;;;;;7.20;5.53;;;23.20;46.00;;;;;;5086722;28;45519;-62
2020/12/11 05:24:44;;;;;;;7.95;4.93;;;23.20;45.70;;;;;;5086248;28;45365;-61
2020/12/11 05:27:32;;;;;;;7.50;5.38;;;23.20;45.50;;;;;;5087036;28;45198;-61
2020/12/11 05:30:15;;;;;;;7.60;5.28;;;23.20;45.40;;;;;;5087589;27;45452;-61
2020/12/11 05:32:43;;;;;;;9.57;5.20;;;23.20;45.50;;;;;;5087262;27;45331;-62
2020/12/11 05:35:21;;;;;;;7.10;5.15;;;23.20;45.60;;;;;;5087123;27;45412;-61
2020/12/11 05:37:57;;;;;;;9.00;6.70;;;23.20;45.30;;;;;;5075757;27;45444;-63
2020/12/11 05:40:29;;;;;;;8.20;6.20;;;23.20;44.90;;;;;;5086195;28;45423;-62
2020/12/11 05:43:08;;;;;;;7.38;5.50;;;23.20;44.50;;;;;;5087590;28;45452;-62
2020/12/11 05:45:35;;;;;;;6.97;4.95;;;23.20;44.60;;;;;;5087324;28;45413;-61
2020/12/11 05:48:01;;;;;;;7.68;5.35;;;23.20;45.10;;;;;;5069598;28;45522;-61
2020/12/11 05:50:27;;;;;;;8.43;5.22;;;23.20;45.10;;;;;;5069033;28;46082;-62
2020/12/11 05:52:53;;;;;;;8.10;5.50;;;23.30;45.20;;;;;;5069548;28;45442;-62
2020/12/11 05:55:19;;;;;;;7.15;5.05;;;23.30;45.20;;;;;;5068782;28;45337;-62
2020/12/11 05:57:44;;;;;;;7.53;5.68;;;23.30;45.10;;;;;;5065363;28;45416;-62
2020/12/11 06:00:10;;;;;;;8.35;5.75;;;23.30;45.00;;;;;;5065745;28;46509;-61
2020/12/11 06:02:36;;;;;;;7.80;5.20;;;23.30;45.00;;;;;;5084076;28;45294;-62
2020/12/11 06:05:02;;;;;;;7.45;4.88;;;23.40;45.00;;;;;;5064536;28;45449;-62
2020/12/11 06:07:27;;;;;;;7.43;5.22;;;23.30;44.90;;;;;;5060356;28;45339;-61
2020/12/11 06:09:53;;;;;;;7.68;5.35;;;23.40;45.00;;;;;;5082897;28;45952;-61
2020/12/11 06:12:18;;;;;;;8.15;5.50;;;23.40;44.90;;;;;;5067338;28;45563;-61
2020/12/11 06:15:02;;;;;;;9.07;5.07;;;23.40;44.80;;;;;;5084275;28;45467;-61
2020/12/11 06:17:31;;;;;;;7.32;4.93;;;23.40;44.80;;;;;;5074201;28;45395;-62
2020/12/11 06:19:59;;;;;;;8.07;5.00;;;23.40;44.70;;;;;;5078868;28;46252;-62
2020/12/11 06:22:25;;;;;;;9.07;5.50;;;23.40;44.70;;;;;;5078397;28;45455;-62
2020/12/11 06:24:51;;;;;;;6.32;4.38;;;23.40;44.70;;;;;;5083550;28;45507;-62
2020/12/11 06:27:28;;;;;;;7.90;5.07;;;23.40;44.70;;;;;;5067591;28;45462;-61
2020/12/11 06:29:53;;;;;;;7.93;4.75;;;23.50;44.90;;;;;;5083839;28;45907;-61
2020/12/11 06:32:19;;;;;;;6.32;4.32;;;23.50;45.00;;;;;;5066884;28;45389;-61
2020/12/11 06:34:45;;;;;;;6.28;4.53;;;23.50;45.00;;;;;;5082171;28;45345;-61
2020/12/11 06:37:10;;;;;;;6.85;4.70;;;23.50;45.10;;;;;;5065944;28;45465;-61
2020/12/11 06:39:40;;;;;;;5.63;4.00;;;23.50;45.20;;;;;;5082287;28;47424;-61
2020/12/11 06:42:07;;;;;;;5.72;4.00;;;23.60;45.30;;;;;;5072558;28;45310;-62
2020/12/11 06:44:33;;;;;;;5.68;3.78;;;23.70;45.40;;;;;;5050967;28;45526;-61
2020/12/11 06:47:17;;;;;;;4.80;3.83;;;23.70;45.40;;;;;;5072512;28;45562;-61
2020/12/11 06:50:04;;;;;;;6.30;4.20;;;23.70;45.60;;;;;;5071749;28;47344;-61
2020/12/11 06:52:34;;;;;;;5.82;3.90;;;23.80;45.60;;;;;;5067108;28;45387;-61
2020/12/11 06:55:00;;;;;;;7.78;3.65;;;23.80;45.70;;;;;;5063680;28;45469;-62
2020/12/11 06:57:37;;;;;;;7.88;3.95;;;23.80;45.80;;;;;;5067671;28;45525;-61
2020/12/11 07:00:21;;;;;;;5.57;4.10;;;23.80;45.70;;;;;;5070504;28;45437;-64
2020/12/11 07:02:47;;;;;;;5.45;3.97;;;23.90;46.00;;;;;;5050605;28;45282;-62
2020/12/11 07:05:13;;;;;;;5.18;3.40;;;23.90;45.90;;;;;;5078459;27;46057;-62
2020/12/11 07:07:38;;;;;;;5.95;3.63;;;23.90;45.90;;;;;;5051601;28;45474;-63
2020/12/11 07:10:05;;;;;;;7.13;4.03;;;23.90;46.40;;;;;;5051156;28;45456;-63
2020/12/11 07:12:32;;;;;;;6.07;3.90;;;23.90;45.90;;;;;;5049584;28;45420;-63
2020/12/11 07:14:58;;;;;;;8.70;3.83;;;23.90;45.80;;;;;;5065775;28;45476;-63
2020/12/11 07:17:27;;;;;;;7.78;4.10;;;23.90;45.80;;;;;;5050259;28;45508;-63
2020/12/11 07:19:53;;;;;;;12.07;4.95;;;23.90;45.90;;;;;;5049933;28;45981;-63
2020/12/11 07:22:22;;;;;;;13.85;5.45;;;23.90;45.90;;;;;;5067525;28;45484;-63
2020/12/11 07:24:48;;;;;;;10.45;6.57;;;23.90;45.80;;;;;;5067854;28;45537;-63
2020/12/11 07:27:13;;;;;;;10.88;5.38;;;23.90;45.60;;;;;;5068214;28;45527;-60
2020/12/11 07:29:47;;;;;;;8.85;5.28;;;23.90;45.70;;;;;;5052558;28;46190;-59
2020/12/11 07:32:17;;;;;;;9.48;4.95;;;24.00;45.40;;;;;;5084253;28;45433;-61
2020/12/11 07:34:43;;;;;;;15.32;5.63;;;24.00;45.50;;;;;;5085414;27;45451;-60
2020/12/11 07:37:08;;;;;;;11.80;6.68;;;24.10;45.40;;;;;;5084092;28;48904;-61
2020/12/11 07:39:34;;;;;;;13.05;6.20;;;24.10;45.10;;;;;;5081226;28;46681;-69
2020/12/11 07:42:01;;;;;;;13.02;5.32;;;24.10;45.80;;;;;;5078532;28;45444;-65
2020/12/11 07:44:28;;;;;;;9.30;5.07;;;24.20;45.90;;;;;;5057163;28;45591;-61
2020/12/11 07:46:55;;;;;;;8.10;5.05;;;24.30;46.10;;;;;;5079042;28;45473;-60
2020/12/11 07:49:20;;;;;;;7.85;4.40;;;24.30;46.00;;;;;;5062190;28;45506;-62
2020/12/11 07:51:46;;;;;;;7.82;4.28;;;24.50;46.10;;;;;;5068943;28;45496;-68
2020/12/11 07:54:12;;;;;;;10.50;4.43;;;24.50;46.20;;;;;;5065788;28;45572;-61
2020/12/11 07:56:38;;;;;;;9.32;4.22;;;24.60;46.00;;;;;;5065340;28;45611;-61
2020/12/11 07:59:15;;;;;;;7.82;3.90;;;24.70;45.90;;;;;;5084301;27;47056;-62
2020/12/11 08:01:46;;;;;;;7.25;4.05;;;24.80;45.90;;;;;;5081023;28;45537;-61
2020/12/11 08:04:12;;;;;;;10.20;3.92;;;24.90;45.90;;;;;;5063869;28;45433;-66
2020/12/11 08:06:59;;;;;;;8.68;4.07;;;24.90;45.90;;;;;;5078887;28;45663;-72
2020/12/11 08:09:31;;;;;;;6.90;3.97;;;25.00;45.80;;;;;;5100028;27;45429;-71
2020/12/11 08:12:15;;;;;;;13.77;3.97;;;25.00;46.20;;;;;;5081316;28;45475;-67
2020/12/11 08:14:41;;;;;;;15.55;3.83;;;25.10;46.00;;;;;;5066398;27;45387;-66
2020/12/11 08:17:09;;;;;;;7.57;3.67;;;25.10;46.10;;;;;;5062351;28;45443;-67
2020/12/11 08:19:34;;;;;;;10.05;3.97;;;25.10;46.00;;;;;;5080257;28;45892;-72
2020/12/11 08:22:13;;;;;;;6.50;3.60;;;25.10;46.00;;;;;;5068622;28;45595;-75
2020/12/11 08:24:39;;;;;;;8.77;3.45;;;25.10;46.10;;;;;;5073659;28;45442;-71
2020/12/11 08:27:04;;;;;;;8.30;4.07;;;25.20;46.20;;;;;;5066992;28;45453;-65
2020/12/11 08:29:30;;;;;;;4.45;2.83;;;25.20;46.10;;;;;;5055705;28;45423;-68
2020/12/11 08:31:56;;;;;;;5.85;3.70;;;25.30;46.20;;;;;;5067259;28;45636;-67
2020/12/11 08:34:29;;;;;;;5.93;3.70;;;25.30;46.10;;;;;;5077098;27;45496;-64
2020/12/11 08:37:02;;;;;;;10.02;3.25;;;25.40;46.30;;;;;;5080087;28;45530;-62
2020/12/11 08:39:29;;;;;;;7.25;2.90;;;25.40;46.20;;;;;;5082059;28;45531;-64
2020/12/11 08:42:28;;;;;;;6.55;3.10;;;25.50;46.20;;;;;;5082364;28;45742;-65
2020/12/11 08:47:48;;;;;;;6.35;2.95;;;25.50;46.30;;;;;;5081423;27;45733;-69
2020/12/11 08:50:23;;;;;;;7.72;3.10;;;25.50;46.20;;;;;;5079589;28;46092;-66
2020/12/11 08:52:49;;;;;;;6.85;3.03;;;25.60;46.20;;;;;;5082342;28;45706;-65
2020/12/11 08:55:15;;;;;;;6.07;3.17;;;25.60;46.10;;;;;;5065511;28;45461;-64
2020/12/11 08:57:40;;;;;;;5.28;2.80;;;25.60;46.10;;;;;;5076626;28;45815;-65
2020/12/11 09:00:06;;;;;;;6.22;3.13;;;25.60;46.10;;;;;;5067040;28;47185;-71
2020/12/11 09:02:32;;;;;;;4.88;2.67;;;25.60;46.10;;;;;;5059217;28;45371;-70
2020/12/11 09:04:57;;;;;;;5.28;2.63;;;25.60;46.10;;;;;;5050667;28;45457;-66
2020/12/11 09:07:24;;;;;;;4.60;3.03;;;25.70;46.30;;;;;;5084199;28;45642;-70
2020/12/11 09:09:51;;;;;;;5.45;3.22;;;25.70;46.20;;;;;;5078000;28;46089;-66
2020/12/11 09:12:17;;;;;;;4.88;2.65;;;25.70;46.30;;;;;;5084477;28;45630;-64
2020/12/11 09:14:43;;;;;;;4.95;2.88;;;25.70;46.40;;;;;;5061566;28;45508;-65
2020/12/11 09:17:08;;;;;;;6.40;2.88;;;25.70;46.20;;;;;;5057085;28;45452;-67
2020/12/11 09:19:34;;;;;;;6.63;3.17;;;25.70;46.20;;;;;;5064821;28;45387;-69
2020/12/11 09:22:01;;;;;;;4.72;2.85;;;25.70;46.30;;;;;;5060993;28;45393;-70
2020/12/11 09:24:30;;;;;;;5.53;3.00;;;25.70;46.20;;;;;;5077189;28;45536;-68
2020/12/11 09:26:56;;;;;;;4.78;2.60;;;25.70;46.20;;;;;;5064735;28;45432;-69
2020/12/11 09:29:30;;;;;;;6.03;2.80;;;25.70;46.20;;;;;;5078783;28;46205;-69
2020/12/11 09:32:01;;;;;;;5.63;2.92;;;25.70;46.10;;;;;;5082602;28;45735;-69
2020/12/11 09:34:32;;;;;;;4.32;2.35;;;25.70;46.20;;;;;;5077261;28;45570;-70
2020/12/11 09:36:59;;;;;;;5.00;2.65;;;25.70;46.10;;;;;;5052397;28;45523;-69
2020/12/11 09:39:25;;;;;;;4.22;2.45;;;25.70;46.10;;;;;;5026954;28;47023;-64
2020/12/11 09:42:28;;;;;;;4.20;2.20;;;25.70;46.10;;;;;;5009173;28;45507;-63
2020/12/11 09:44:49;;;;;;;4.43;2.53;;;25.70;46.20;;;;;;5037722;28;45709;-66
2020/12/11 09:50:31;;;;;;;4.60;2.30;;;25.90;46.10;;;;;;5032639;28;45650;-65
2020/12/11 09:53:07;;;;;;;4.28;1.95;;;25.90;46.40;;;;;;5061685;28;45812;-61
2020/12/11 09:55:44;;;;;;;4.15;2.00;;;26.00;46.20;;;;;;5062347;28;45577;-69
2020/12/11 09:58:10;;;;;;;6.07;3.05;;;26.10;46.00;;;;;;5057699;28;45338;-63
2020/12/11 10:00:39;;;;;;;4.15;2.20;;;26.10;46.10;;;;;;5026965;28;46959;-58
2020/12/11 10:03:07;;;;;;;4.75;3.05;;;26.10;46.00;;;;;;5043703;28;45471;-65
2020/12/11 10:05:33;;;;;;;5.00;2.88;;;26.10;45.90;;;;;;5034931;28;45497;-66
2020/12/11 10:07:58;;;;;;;5.35;2.50;;;26.20;46.00;;;;;;5018157;28;45772;-65
2020/12/11 10:10:24;;;;;;;6.53;2.60;;;26.20;45.90;;;;;;5020573;28;45651;-63
2020/12/11 10:12:50;;;;;;;5.45;3.10;;;26.10;45.90;;;;;;5023176;28;45497;-67
2020/12/11 10:15:22;;;;;;;3.78;2.47;;;26.10;45.90;;;;;;5058863;28;45679;-64
2020/12/11 10:17:49;;;;;;;3.90;2.20;;;26.10;45.90;;;;;;5058757;28;45480;-65
2020/12/11 10:20:18;;;;;;;5.25;2.70;;;26.10;45.90;;;;;;5047979;28;45641;-62
2020/12/11 10:22:48;;;;;;;4.40;2.70;;;26.20;46.00;;;;;;5066964;28;45581;-63
2020/12/11 10:25:13;;;;;;;4.47;2.00;;;26.20;46.00;;;;;;5083921;28;45427;-63
2020/12/11 10:27:39;;;;;;;6.07;2.80;;;26.20;46.00;;;;;;5066919;28;45568;-64
2020/12/11 10:30:05;;;;;;;4.50;2.63;;;26.20;45.90;;;;;;5084036;28;45580;-64
2020/12/11 10:32:31;;;;;;;3.33;2.08;;;26.20;45.90;;;;;;5067138;28;45660;-62
2020/12/11 10:34:56;;;;;;;3.72;2.28;;;26.20;45.90;;;;;;5052558;28;45445;-60
2020/12/11 10:37:22;;;;;;;5.18;2.25;;;26.10;45.80;;;;;;5060643;28;45879;-58
2020/12/11 10:39:47;;;;;;;4.20;2.45;;;26.20;45.90;;;;;;5071223;28;46802;-58
2020/12/11 10:42:13;;;;;;;5.03;2.88;;;26.20;46.00;;;;;;5074702;28;45902;-64
2020/12/11 10:44:39;;;;;;;4.18;2.15;;;26.20;45.90;;;;;;5069449;28;45452;-63
2020/12/11 10:47:07;;;;;;;5.00;2.72;;;26.20;45.90;;;;;;5059870;28;45769;-64
2020/12/11 10:49:32;;;;;;;4.32;2.17;;;26.20;45.90;;;;;;5083535;28;47335;-64
2020/12/11 10:51:58;;;;;;;5.25;1.90;;;26.10;45.90;;;;;;5047351;28;45846;-63
2020/12/11 10:54:27;;;;;;;4.65;2.40;;;26.10;45.80;;;;;;5026133;28;45441;-62
2020/12/11 10:56:53;;;;;;;8.15;3.85;;;26.10;45.90;;;;;;5048633;28;45750;-66
2020/12/11 10:59:19;;;;;;;7.35;2.90;;;26.00;45.60;;;;;;5046258;28;46952;-65
2020/12/11 11:01:44;;;;;;;7.80;3.38;;;25.90;45.60;;;;;;5026917;28;45929;-65
2020/12/11 11:04:10;;;;;;;11.10;4.65;;;25.90;45.80;;;;;;5039360;28;45394;-65
2020/12/11 11:06:43;;;;;;;7.90;3.90;;;25.80;46.00;;;;;;5023632;28;45446;-65
2020/12/11 11:09:28;;;;;;;7.93;3.47;;;25.70;46.10;;;;;;5047054;28;46214;-65
2020/12/11 11:12:07;;;;;;;20.13;4.53;;;25.70;46.20;;;;;;5027299;28;45500;-69
2020/12/11 11:15:20;;;;;;;8.23;5.35;;;25.50;45.60;;;;;;5043281;28;45822;-69
2020/12/11 11:28:01;;;;;;;14.52;6.20;;;24.90;41.30;;;;;;5080341;28;45488;-70
2020/12/11 11:30:28;;;;;;;8.63;5.37;;;24.70;40.60;;;;;;5078065;28;46457;-69
2020/12/11 11:32:54;;;;;;;10.05;5.32;;;24.70;41.70;;;;;;5074183;27;45441;-66
2020/12/11 11:35:20;;;;;;;7.93;3.92;;;24.80;44.30;;;;;;5060128;28;45698;-70
2020/12/11 11:37:46;;;;;;;14.10;3.72;;;24.90;44.90;;;;;;5055889;28;45548;-68
2020/12/11 11:40:12;;;;;;;15.35;4.45;;;24.90;45.50;;;;;;5065883;28;45434;-66
2020/12/11 11:42:38;;;;;;;12.90;4.35;;;24.90;46.30;;;;;;5081912;28;45373;-60
2020/12/11 11:45:06;;;;;;;11.40;4.38;;;24.80;46.10;;;;;;5069828;28;45502;-60
2020/12/11 11:47:33;;;;;;;11.93;5.25;;;24.90;45.80;;;;;;5080514;28;46680;-61
2020/12/11 11:50:28;;;;;;;10.00;5.05;;;24.80;45.50;;;;;;5058962;28;45501;-63
2020/12/11 11:52:56;;;;;;;10.52;4.18;;;24.80;45.20;;;;;;5074347;28;45375;-63
2020/12/11 11:55:22;;;;;;;11.82;4.75;;;24.70;44.90;;;;;;5068355;28;45409;-61
2020/12/11 11:57:48;;;;;;;7.28;3.60;;;24.70;45.10;;;;;;5081280;28;45405;-65
2020/12/11 12:00:14;;;;;;;11.02;3.67;;;24.70;45.30;;;;;;5079134;28;47451;-68
2020/12/11 12:02:39;;;;;;;12.70;4.28;;;24.80;45.30;;;;;;5061154;28;45868;-68
2020/12/11 12:05:05;;;;;;;13.00;4.32;;;24.80;45.40;;;;;;5070052;28;45410;-65
2020/12/11 12:07:33;;;;;;;7.40;3.85;;;24.80;45.50;;;;;;5047358;28;46328;-65
2020/12/11 12:09:58;;;;;;;7.07;3.28;;;24.80;45.60;;;;;;5054018;28;46317;-68
2020/12/11 12:12:25;;;;;;;8.63;3.55;;;24.90;45.80;;;;;;5065776;28;45334;-65
2020/12/11 12:14:52;;;;;;;7.97;3.50;;;24.90;45.80;;;;;;5078618;28;45503;-64
2020/12/11 12:17:22;;;;;;;10.07;3.45;;;24.90;45.80;;;;;;5062906;28;45707;-63
2020/12/11 12:19:50;;;;;;;8.52;3.03;;;24.90;45.90;;;;;;5077853;28;47111;-66
2020/12/11 12:30:02;;;;;;;7.78;3.08;;;24.90;46.30;;;;;;5068701;28;45426;-64
2020/12/11 12:32:32;;;;;;;7.47;3.10;;;24.90;46.30;;;;;;5073074;28;45516;-59
2020/12/11 12:35:00;;;;;;;5.50;2.95;;;25.00;46.30;;;;;;5063050;28;45675;-60
2020/12/11 12:45:39;;;;;;;7.63;3.30;;;24.90;46.60;;;;;;5065605;28;45841;-64
2020/12/11 12:48:07;;;;;;;5.32;2.90;;;24.80;46.60;;;;;;5055596;28;45591;-64
2020/12/11 12:50:33;;;;;;;6.07;2.58;;;24.90;46.60;;;;;;5075360;28;45409;-67
2020/12/11 12:52:59;;;;;;;5.65;3.28;;;24.90;46.60;;;;;;5075243;27;45452;-64
2020/12/11 12:55:40;;;;;;;6.28;2.50;;;24.90;46.50;;;;;;5058849;28;45566;-64
2020/12/11 12:58:07;;;;;;;4.32;2.28;;;24.90;46.40;;;;;;5048785;28;45539;-64
2020/12/11 13:01:03;;;;;;;5.30;2.75;;;25.00;46.30;;;;;;5075337;28;45686;-64
2020/12/11 13:06:06;;;;;;;5.43;3.10;;;24.90;46.10;;;;;;5061581;28;45498;-63
2020/12/11 13:08:31;;;;;;;6.70;2.45;;;25.00;46.30;;;;;;5071881;28;46316;-60
2020/12/11 13:10:57;;;;;;;5.10;2.65;;;25.00;46.20;;;;;;5076991;28;46917;-62
2020/12/11 13:13:23;;;;;;;5.97;2.65;;;25.10;46.20;;;;;;5074692;28;45523;-63
2020/12/11 13:15:49;;;;;;;5.32;2.30;;;25.10;46.10;;;;;;5073156;28;45763;-65
2020/12/11 13:18:15;;;;;;;4.70;2.40;;;25.20;46.00;;;;;;5057391;28;45643;-61
2020/12/11 13:20:43;;;;;;;6.05;3.17;;;25.20;46.00;;;;;;5059322;28;47060;-61
2020/12/11 13:28:38;;;;;;;6.47;5.05;;;24.90;44.70;;;;;;5074521;27;45743;-59
2020/12/11 13:31:04;;;;;;;9.40;5.63;;;24.80;43.60;;;;;;5059693;28;47080;-60